Time;durP1;ratioP1;P1;durP2;ratioP2;P2;SDS_P1;SDS_P2;PMS_P1;PMS_P2;Temp;Humidity;BMP_temperature;BMP_pressure;BME280_temperature;BME280_humidity;BME280_pressure;Samples;Min_cycle;Max_cycle;Signal;HPM_P1;HPM_P2
2022/03/16 00:02:20;;;;;;;29.13;18.13;;;;;;;13.79;64.80;100830.50;5031141;28;20473;-86
2022/03/16 00:04:50;;;;;;;25.80;17.65;;;;;;;13.87;64.43;100829.94;5032524;28;20032;-86
2022/03/16 00:07:16;;;;;;;26.58;17.60;;;;;;;13.95;63.97;100834.66;5032585;28;20425;-86
2022/03/16 00:09:42;;;;;;;24.58;17.10;;;;;;;14.02;63.76;100820.00;5032678;28;20049;-86
2022/03/16 00:12:08;;;;;;;29.20;17.55;;;;;;;13.88;63.99;100826.31;5031549;28;20033;-86
2022/03/16 00:14:33;;;;;;;26.17;17.92;;;;;;;13.96;64.03;100828.41;5033497;28;20033;-87
2022/03/16 00:16:59;;;;;;;23.63;17.73;;;;;;;14.02;63.88;100815.59;5033179;28;20021;-87
2022/03/16 00:19:24;;;;;;;26.25;17.48;;;;;;;13.99;64.32;100820.25;5032663;28;20024;-86
2022/03/16 00:21:50;;;;;;;27.95;19.05;;;;;;;13.90;64.38;100821.78;5034927;28;20049;-86
2022/03/16 00:24:15;;;;;;;30.60;20.20;;;;;;;13.87;64.40;100822.84;5036151;28;20088;-86
2022/03/16 00:26:40;;;;;;;29.52;18.92;;;;;;;13.93;64.01;100816.28;5036315;28;20033;-86
2022/03/16 00:29:06;;;;;;;24.58;17.95;;;;;;;13.97;63.84;100814.25;5036305;28;20030;-86
2022/03/16 00:31:33;;;;;;;28.02;19.35;;;;;;;13.88;64.54;100806.06;5035711;28;20449;-86
2022/03/16 00:33:58;;;;;;;26.73;17.90;;;;;;;13.88;64.34;100800.78;5035162;28;20091;-86
2022/03/16 00:36:23;;;;;;;26.85;18.15;;;;;;;13.99;63.88;100796.50;5035434;28;20041;-86
2022/03/16 00:38:49;;;;;;;23.23;16.75;;;;;;;14.02;63.60;100793.59;5035530;28;20025;-86
2022/03/16 00:41:15;;;;;;;22.63;16.90;;;;;;;13.99;63.89;100796.50;5035532;28;20017;-86
2022/03/16 00:43:41;;;;;;;22.13;16.20;;;;;;;13.98;63.89;100795.66;5035359;28;20083;-86
2022/03/16 00:46:07;;;;;;;26.05;18.55;;;;;;;13.96;63.76;100794.06;5035440;28;20029;-86
2022/03/16 00:48:32;;;;;;;26.27;17.85;;;;;;;13.82;64.16;100780.16;5034766;28;20023;-86
2022/03/16 00:50:58;;;;;;;25.25;16.42;;;;;;;13.86;64.23;100778.97;5035112;28;20048;-86
2022/03/16 00:53:23;;;;;;;23.00;16.50;;;;;;;13.85;64.29;100773.78;5035370;28;20025;-85
2022/03/16 00:55:48;;;;;;;24.92;16.33;;;;;;;13.85;64.26;100771.97;5035287;28;20108;-86
2022/03/16 00:58:14;;;;;;;23.15;15.90;;;;;;;13.82;64.40;100777.50;5034917;28;20109;-85
2022/03/16 01:00:39;;;;;;;23.40;16.73;;;;;;;13.89;64.23;100783.16;5034639;28;20029;-85
2022/03/16 01:03:05;;;;;;;20.55;15.73;;;;;;;13.89;63.67;100768.16;5033964;28;20083;-86
2022/03/16 01:05:30;;;;;;;24.40;15.73;;;;;;;13.88;63.71;100773.53;5034975;28;20064;-87
2022/03/16 01:07:55;;;;;;;24.63;17.33;;;;;;;13.87;63.66;100780.63;5034980;28;20079;-86
2022/03/16 01:10:21;;;;;;;23.75;17.40;;;;;;;13.85;63.78;100784.34;5034792;28;20033;-86
2022/03/16 01:12:46;;;;;;;22.60;16.30;;;;;;;13.83;63.59;100773.91;5035129;28;20416;-86
2022/03/16 01:15:11;;;;;;;23.35;17.73;;;;;;;13.75;63.78;100776.28;5034818;28;20034;-86
2022/03/16 01:17:37;;;;;;;25.55;16.83;;;;;;;13.71;64.25;100774.00;5029951;28;20022;-86
2022/03/16 01:20:02;;;;;;;25.25;18.48;;;;;;;13.71;64.15;100774.00;5014284;28;20080;-86
2022/03/16 01:22:28;;;;;;;27.67;19.40;;;;;;;13.72;64.64;100775.66;5014081;28;20052;-86
2022/03/16 01:24:53;;;;;;;28.15;18.20;;;;;;;13.72;64.54;100765.94;5013303;28;20459;-86
2022/03/16 01:27:18;;;;;;;23.33;17.50;;;;;;;13.71;64.54;100768.72;5014724;28;20030;-86
2022/03/16 01:29:44;;;;;;;30.35;19.17;;;;;;;13.66;64.13;100766.41;5014234;28;20057;-86
2022/03/16 01:32:09;;;;;;;23.95;18.00;;;;;;;13.64;64.39;100763.88;5020959;28;20021;-86
2022/03/16 01:34:35;;;;;;;30.67;21.17;;;;;;;13.56;64.96;100762.78;5032198;28;20044;-86
2022/03/16 01:37:02;;;;;;;27.05;18.98;;;;;;;13.63;64.68;100758.75;5033016;28;20026;-86
2022/03/16 01:39:27;;;;;;;30.05;19.65;;;;;;;13.70;64.85;100752.03;5033572;28;20018;-86
2022/03/16 01:41:52;;;;;;;27.92;20.17;;;;;;;13.69;64.38;100745.91;5032373;28;20096;-86
2022/03/16 01:44:42;;;;;;;32.45;21.10;;;;;;;13.74;64.98;100748.19;5033967;28;20029;-86
2022/03/16 01:47:07;;;;;;;31.80;20.52;;;;;;;13.72;64.85;100752.75;5033611;28;20487;-86
2022/03/16 01:49:33;;;;;;;28.23;20.02;;;;;;;13.70;64.83;100744.09;5033824;28;20223;-86
2022/03/16 01:51:58;;;;;;;30.52;21.02;;;;;;;13.64;64.89;100749.84;5033770;28;20472;-86
2022/03/16 01:54:23;;;;;;;26.23;19.42;;;;;;;13.65;64.69;100741.81;5033760;28;20518;-86
2022/03/16 01:56:49;;;;;;;26.73;18.95;;;;;;;13.65;64.71;100741.00;5033437;28;20641;-86
2022/03/16 01:59:14;;;;;;;29.70;19.63;;;;;;;13.62;64.88;100741.22;5033489;28;20033;-86
2022/03/16 02:01:40;;;;;;;26.67;20.58;;;;;;;13.65;64.86;100733.06;5033441;28;20091;-86
2022/03/16 02:04:05;;;;;;;28.40;20.38;;;;;;;13.69;64.74;100735.34;5033155;28;20033;-86
2022/03/16 02:06:31;;;;;;;32.40;22.95;;;;;;;13.71;64.49;100729.13;5031981;28;20033;-86
2022/03/16 02:08:57;;;;;;;35.35;22.80;;;;;;;13.60;65.06;100714.09;5033407;28;20033;-86
2022/03/16 02:11:22;;;;;;;31.40;22.98;;;;;;;13.74;64.46;100719.16;5033512;28;20037;-86
2022/03/16 02:13:48;;;;;;;35.90;22.77;;;;;;;13.75;64.58;100702.38;5033354;28;20025;-86
2022/03/16 02:16:13;;;;;;;34.42;22.73;;;;;;;13.78;64.29;100702.13;5033551;28;20037;-86
2022/03/16 02:18:38;;;;;;;34.03;23.13;;;;;;;13.80;64.85;100699.38;5033151;28;20057;-86
2022/03/16 02:21:06;;;;;;;32.17;23.70;;;;;;;13.77;64.77;100686.44;5031727;28;20518;-86
2022/03/16 02:23:32;;;;;;;34.22;23.58;;;;;;;13.78;64.65;100688.94;5032861;28;20033;-86
2022/03/16 02:25:57;;;;;;;30.45;21.88;;;;;;;13.74;64.09;100690.13;5033023;28;20435;-86
2022/03/16 02:28:24;;;;;;;28.63;21.45;;;;;;;13.72;64.27;100702.59;5032927;28;20109;-86
2022/03/16 02:30:50;;;;;;;32.28;22.13;;;;;;;13.65;64.60;100690.84;5032868;28;20049;-86
2022/03/16 02:33:16;;;;;;;31.45;22.38;;;;;;;13.57;64.45;100687.97;5033085;28;20039;-86
2022/03/16 02:35:42;;;;;;;30.35;20.70;;;;;;;13.47;64.56;100685.19;5033024;28;20104;-86
2022/03/16 02:38:07;;;;;;;26.30;19.60;;;;;;;13.45;64.83;100693.22;5033000;28;20033;-86
2022/03/16 02:40:33;;;;;;;30.58;20.77;;;;;;;13.44;64.69;100694.16;5032037;28;20022;-86
2022/03/16 02:42:59;;;;;;;29.45;19.45;;;;;;;13.42;64.29;100690.78;5032536;28;20094;-86
2022/03/16 02:45:24;;;;;;;32.05;22.88;;;;;;;13.32;64.64;100700.34;5031549;28;20151;-86
2022/03/16 02:47:50;;;;;;;30.00;20.60;;;;;;;13.29;64.64;100692.66;5031472;28;20049;-86
2022/03/16 02:50:16;;;;;;;33.88;23.80;;;;;;;13.27;64.82;100691.94;5032720;28;20025;-86
2022/03/16 02:52:43;;;;;;;36.95;25.08;;;;;;;13.27;64.85;100694.56;5032822;28;20162;-86
2022/03/16 02:55:09;;;;;;;31.45;23.42;;;;;;;13.27;64.92;100689.28;5032202;28;20021;-86
2022/03/16 02:57:35;;;;;;;36.88;25.23;;;;;;;13.35;65.08;100683.44;5032670;28;20398;-86
2022/03/16 03:00:03;;;;;;;41.88;25.60;;;;;;;13.35;64.79;100689.59;5032460;28;20434;-86
2022/03/16 03:02:28;;;;;;;37.97;24.35;;;;;;;13.36;64.98;100690.41;5032097;28;20108;-86
2022/03/16 03:04:53;;;;;;;36.65;24.92;;;;;;;13.21;65.01;100689.72;5032170;28;20448;-86
2022/03/16 03:07:19;;;;;;;38.90;24.30;;;;;;;13.31;64.85;100693.41;5032111;28;20180;-86
2022/03/16 03:09:44;;;;;;;33.88;24.40;;;;;;;13.29;64.11;100685.63;5031758;28;20479;-86
2022/03/16 03:12:10;;;;;;;38.88;25.42;;;;;;;13.22;64.46;100696.69;5034763;28;20014;-86
2022/03/16 03:14:35;;;;;;;35.53;24.25;;;;;;;13.13;65.17;100686.81;5034475;28;20180;-85
2022/03/16 03:17:01;;;;;;;34.50;23.63;;;;;;;13.06;65.37;100679.38;5033879;28;20071;-86
2022/03/16 03:19:26;;;;;;;37.80;24.98;;;;;;;13.15;65.02;100684.91;5031628;28;20042;-86
2022/03/16 03:21:52;;;;;;;42.60;26.92;;;;;;;13.18;65.34;100687.34;5032228;28;20052;-86
2022/03/16 03:24:18;;;;;;;38.83;25.90;;;;;;;13.22;65.48;100683.50;5031992;28;20060;-86
2022/03/16 03:26:44;;;;;;;38.03;27.02;;;;;;;13.22;65.14;100684.34;5031780;28;20025;-86
2022/03/16 03:29:10;;;;;;;40.70;26.70;;;;;;;13.29;65.17;100679.47;5030633;28;20084;-86
2022/03/16 03:31:35;;;;;;;36.97;24.92;;;;;;;13.31;65.10;100680.22;5032016;28;20029;-86
2022/03/16 03:34:02;;;;;;;40.08;27.15;;;;;;;13.30;65.33;100678.53;5032088;28;20030;-86
2022/03/16 03:36:27;;;;;;;47.20;29.40;;;;;;;13.35;65.64;100678.19;5031357;28;20479;-86
2022/03/16 03:38:53;;;;;;;52.55;33.42;;;;;;;13.33;66.13;100673.03;5031550;28;20109;-86
2022/03/16 03:41:18;;;;;;;56.25;33.13;;;;;;;13.43;66.02;100684.56;5031523;28;20060;-86
2022/03/16 03:43:43;;;;;;;53.15;33.90;;;;;;;13.49;65.94;100680.63;5031622;28;20033;-87
2022/03/16 03:46:09;;;;;;;55.53;35.13;;;;;;;13.48;65.79;100674.50;5031329;28;20415;-87
2022/03/16 03:48:34;;;;;;;52.10;35.75;;;;;;;13.52;66.20;100684.81;5031652;28;20112;-87
2022/03/16 03:50:59;;;;;;;60.63;38.65;;;;;;;13.42;66.68;100685.50;5030444;28;20047;-87
2022/03/16 03:53:25;;;;;;;60.92;38.00;;;;;;;13.47;66.84;100683.38;5031481;28;20093;-86
2022/03/16 03:55:50;;;;;;;54.85;35.13;;;;;;;13.55;66.56;100679.34;5032418;28;20086;-86
2022/03/16 03:58:15;;;;;;;65.68;39.05;;;;;;;13.58;66.59;100684.34;5016677;28;20080;-86
2022/03/16 04:00:41;;;;;;;54.13;35.22;;;;;;;13.64;66.10;100676.81;5016613;28;20026;-86
2022/03/16 04:03:06;;;;;;;57.88;36.83;;;;;;;13.65;66.08;100685.59;5017200;28;20030;-86
2022/03/16 04:05:32;;;;;;;52.40;35.05;;;;;;;13.69;66.55;100681.75;5017346;28;20026;-86
2022/03/16 04:07:57;;;;;;;58.15;37.08;;;;;;;13.74;65.94;100684.03;5033418;28;20029;-85
2022/03/16 04:10:23;;;;;;;57.45;34.60;;;;;;;13.66;66.30;100669.66;5037683;28;20108;-86
2022/03/16 04:12:49;;;;;;;52.22;33.53;;;;;;;13.75;66.13;100670.72;5037124;28;20356;-86
2022/03/16 04:15:15;;;;;;;50.50;35.47;;;;;;;13.66;66.38;100667.00;5036888;28;20038;-85
2022/03/16 04:17:41;;;;;;;53.95;34.70;;;;;;;13.67;66.59;100673.94;5036168;28;20034;-86
2022/03/16 04:20:07;;;;;;;56.80;33.90;;;;;;;13.75;66.49;100672.53;5036396;28;20096;-85
2022/03/16 04:22:33;;;;;;;47.03;31.30;;;;;;;13.76;66.71;100669.75;5036342;28;20104;-86
2022/03/16 04:24:58;;;;;;;52.35;32.83;;;;;;;13.77;66.28;100671.44;5035799;28;20022;-86
2022/03/16 04:27:24;;;;;;;54.05;34.22;;;;;;;13.74;66.37;100665.56;5035524;28;20472;-85
2022/03/16 04:29:49;;;;;;;52.45;32.33;;;;;;;13.72;66.74;100672.75;5036250;28;20018;-86
2022/03/16 04:32:15;;;;;;;52.80;32.80;;;;;;;13.81;66.42;100662.31;5035974;28;20109;-86
2022/03/16 04:34:41;;;;;;;54.05;33.53;;;;;;;13.83;66.69;100668.31;5036138;28;20391;-85
2022/03/16 04:37:06;;;;;;;59.28;35.65;;;;;;;13.79;66.55;100677.44;5035596;28;20033;-86
2022/03/16 04:39:31;;;;;;;57.42;35.65;;;;;;;13.79;66.31;100685.34;5035875;28;20055;-86
2022/03/16 04:41:57;;;;;;;54.42;32.10;;;;;;;13.80;66.50;100679.13;5036160;28;20445;-86
2022/03/16 04:44:22;;;;;;;58.78;35.95;;;;;;;13.76;66.58;100682.94;5035620;28;20032;-86
2022/03/16 04:46:47;;;;;;;60.00;35.42;;;;;;;13.78;66.74;100685.47;5035613;28;20379;-86
2022/03/16 04:49:13;;;;;;;57.25;33.38;;;;;;;13.72;66.55;100685.94;5035219;28;20029;-86
2022/03/16 04:51:40;;;;;;;60.53;35.72;;;;;;;13.73;66.84;100683.19;5034134;28;20021;-86
2022/03/16 04:54:06;;;;;;;50.95;33.30;;;;;;;13.73;66.75;100688.47;5035726;28;20029;-86
2022/03/16 04:56:31;;;;;;;54.40;33.13;;;;;;;13.73;67.01;100690.28;5035324;28;20032;-86
2022/03/16 04:58:56;;;;;;;50.50;31.85;;;;;;;13.69;67.27;100690.50;5035163;28;20033;-85
2022/03/16 05:01:21;;;;;;;58.05;36.10;;;;;;;13.76;66.96;100684.75;5035817;28;20056;-85
2022/03/16 05:03:47;;;;;;;62.30;36.78;;;;;;;13.79;66.75;100690.63;5034937;28;20056;-85
2022/03/16 05:06:12;;;;;;;62.80;36.10;;;;;;;13.72;66.84;100678.84;5034962;28;20021;-85
2022/03/16 05:08:38;;;;;;;69.13;36.78;;;;;;;13.82;66.67;100677.22;5033398;28;20033;-85
2022/03/16 05:11:04;;;;;;;53.40;34.40;;;;;;;13.89;66.50;100677.56;5034907;28;20025;-85
2022/03/16 05:13:30;;;;;;;63.08;37.72;;;;;;;13.87;66.88;100672.41;5033711;28;20442;-85
2022/03/16 05:15:55;;;;;;;70.28;35.53;;;;;;;13.67;67.50;100657.28;5036293;28;20104;-85
2022/03/16 05:18:23;;;;;;;50.85;31.40;;;;;;;13.68;67.83;100658.94;5034745;28;20021;-85
2022/03/16 05:20:48;;;;;;;69.00;34.80;;;;;;;13.64;67.98;100647.78;5034442;28;20029;-85
2022/03/16 05:23:14;;;;;;;54.35;32.10;;;;;;;13.82;67.22;100650.81;5034550;28;20026;-85
2022/03/16 05:25:39;;;;;;;52.55;32.08;;;;;;;13.86;67.19;100652.25;5034869;28;20587;-85
2022/03/16 05:28:05;;;;;;;51.97;31.30;;;;;;;13.86;67.07;100641.69;5033920;28;20067;-85
2022/03/16 05:30:30;;;;;;;52.92;32.03;;;;;;;13.90;67.03;100647.56;5034257;28;20468;-85
2022/03/16 05:32:59;;;;;;;56.15;32.13;;;;;;;13.80;67.57;100641.31;5034551;28;20033;-85
2022/03/16 05:35:25;;;;;;;48.35;30.40;;;;;;;13.84;67.25;100635.72;5034415;28;20475;-85
2022/03/16 05:37:50;;;;;;;51.38;32.15;;;;;;;13.93;67.31;100651.78;5034024;28;20021;-85
2022/03/16 05:40:16;;;;;;;56.53;32.13;;;;;;;13.94;67.46;100629.69;5049657;28;20025;-85
2022/03/16 05:42:41;;;;;;;48.88;30.58;;;;;;;14.01;67.18;100634.38;5034281;28;20025;-85
2022/03/16 05:45:08;;;;;;;39.35;27.23;;;;;;;14.00;66.92;100634.47;5034253;28;20029;-85
2022/03/16 05:47:33;;;;;;;44.92;30.27;;;;;;;14.05;66.91;100645.53;5034009;28;20030;-85
2022/03/16 05:49:59;;;;;;;49.20;27.48;;;;;;;13.94;67.57;100648.16;5027517;28;20075;-85
2022/03/16 05:52:25;;;;;;;42.83;27.00;;;;;;;14.03;67.42;100650.09;5028578;28;20018;-86
2022/03/16 05:54:52;;;;;;;39.70;25.90;;;;;;;14.07;67.13;100655.00;5033412;28;20021;-86
2022/03/16 05:57:18;;;;;;;39.50;26.92;;;;;;;14.04;67.40;100654.41;5033662;28;20033;-86
2022/03/16 05:59:44;;;;;;;40.78;27.23;;;;;;;14.08;67.48;100661.16;5033127;28;20052;-86
2022/03/16 06:02:11;;;;;;;43.38;25.90;;;;;;;14.08;67.30;100651.41;5033664;28;20430;-86
2022/03/16 06:04:37;;;;;;;38.28;26.15;;;;;;;14.06;67.72;100661.25;5033532;28;20294;-86
2022/03/16 06:07:04;;;;;;;42.65;26.52;;;;;;;14.01;67.87;100658.13;5033415;28;20049;-86
2022/03/16 06:09:29;;;;;;;47.80;27.02;;;;;;;14.01;68.17;100662.56;5031861;28;20428;-86
2022/03/16 06:11:54;;;;;;;43.47;28.95;;;;;;;14.07;67.60;100662.09;5033370;28;20060;-86
2022/03/16 06:14:20;;;;;;;44.88;28.67;;;;;;;14.10;67.54;100661.88;5033145;28;20414;-86
2022/03/16 06:16:47;;;;;;;64.30;31.40;;;;;;;14.10;67.91;100664.50;5033291;28;20450;-86
2022/03/16 06:19:12;;;;;;;50.30;30.05;;;;;;;14.09;67.96;100663.63;5032458;28;20381;-86
2022/03/16 06:21:38;;;;;;;50.60;30.73;;;;;;;14.14;67.66;100667.72;5032932;28;20028;-86
2022/03/16 06:24:03;;;;;;;59.25;33.72;;;;;;;14.14;67.65;100667.72;5033007;28;20033;-86
2022/03/16 06:26:29;;;;;;;64.63;36.05;;;;;;;14.22;67.48;100663.53;5033273;28;20022;-86
2022/03/16 06:28:54;;;;;;;56.22;33.10;;;;;;;14.29;67.28;100663.88;5032696;28;20021;-86
2022/03/16 06:31:19;;;;;;;71.75;36.75;;;;;;;14.24;67.41;100661.59;5032368;28;20029;-86
2022/03/16 06:33:45;;;;;;;68.18;34.72;;;;;;;14.19;67.80;100674.31;5032956;28;20034;-86
2022/03/16 06:36:10;;;;;;;64.43;35.88;;;;;;;14.18;67.82;100671.78;5031467;28;20029;-87
2022/03/16 06:38:35;;;;;;;66.90;36.60;;;;;;;14.22;67.88;100678.53;5032686;28;20499;-86
2022/03/16 06:41:01;;;;;;;84.75;36.88;;;;;;;14.16;67.88;100690.44;5032078;28;20025;-87
2022/03/16 06:43:26;;;;;;;72.63;38.28;;;;;;;14.21;67.71;100688.25;5033006;28;20456;-87
2022/03/16 06:45:51;;;;;;;66.70;34.85;;;;;;;14.24;67.98;100681.91;5032645;28;20026;-85
2022/03/16 06:48:21;;;;;;;65.25;34.63;;;;;;;14.34;67.77;100682.00;5032521;28;20088;-86
2022/03/16 06:50:46;;;;;;;77.85;39.30;;;;;;;14.23;67.91;100675.75;5031856;28;20025;-85
2022/03/16 06:53:12;;;;;;;77.78;35.75;;;;;;;13.98;69.42;100676.00;5033606;28;20028;-86
2022/03/16 06:55:37;;;;;;;74.55;37.55;;;;;;;14.08;68.69;100677.81;5033637;28;20108;-86
2022/03/16 06:58:03;;;;;;;84.25;37.80;;;;;;;14.12;68.56;100681.06;5030881;28;20033;-85
2022/03/16 07:00:28;;;;;;;77.90;36.80;;;;;;;14.23;68.42;100681.03;5031656;28;20021;-86
2022/03/16 07:02:59;;;;;;;90.45;38.92;;;;;;;14.21;68.66;100669.75;5035548;28;20055;-87
2022/03/16 07:05:33;;;;;;;79.13;37.72;;;;;;;14.31;68.29;100676.97;5047734;28;20029;-87
2022/03/16 07:08:02;;;;;;;74.25;37.53;;;;;;;14.26;68.64;100685.25;5051253;28;20064;-87
2022/03/16 07:10:29;;;;;;;78.47;38.22;;;;;;;14.34;68.42;100689.94;5045978;28;20613;-87
2022/03/16 07:12:55;;;;;;;65.40;35.50;;;;;;;14.47;68.22;100706.47;5029529;28;20033;-88
2022/03/16 07:15:21;;;;;;;75.75;37.72;;;;;;;14.42;68.24;100695.44;5031923;28;20480;-87
2022/03/16 07:17:46;;;;;;;72.63;38.58;;;;;;;14.42;68.35;100691.00;5031814;28;20035;-88
2022/03/16 07:20:12;;;;;;;75.30;37.53;;;;;;;14.56;67.85;100686.41;5030313;28;20113;-88
2022/03/16 07:22:38;;;;;;;79.72;39.58;;;;;;;14.55;68.00;100682.91;5031271;28;20491;-88
2022/03/16 07:25:04;;;;;;;73.00;40.03;;;;;;;14.53;68.20;100692.75;5036004;28;20121;-86
2022/03/16 07:27:29;;;;;;;77.57;38.42;;;;;;;14.56;68.19;100687.28;5031381;28;20025;-89
2022/03/16 07:29:55;;;;;;;86.70;41.40;;;;;;;14.42;68.29;100687.53;5031130;28;20084;-87
2022/03/16 07:32:21;;;;;;;81.70;40.75;;;;;;;14.49;68.61;100686.06;5036767;28;20029;-87
2022/03/16 07:34:46;;;;;;;80.90;41.40;;;;;;;14.57;68.10;100683.66;5037852;28;20091;-84
2022/03/16 07:37:12;;;;;;;72.65;38.92;;;;;;;14.66;68.18;100676.81;5038253;28;20108;-86
2022/03/16 07:39:37;;;;;;;80.53;40.20;;;;;;;14.60;68.40;100664.94;5037620;28;20029;-86
2022/03/16 07:42:03;;;;;;;77.03;41.20;;;;;;;14.75;67.81;100654.94;5037418;28;20022;-85
2022/03/16 07:44:28;;;;;;;77.90;39.25;;;;;;;14.57;68.35;100644.03;5048692;28;20097;-84
2022/03/16 07:46:54;;;;;;;84.32;39.42;;;;;;;14.80;68.16;100647.44;5038289;28;20047;-85
2022/03/16 07:49:19;;;;;;;72.15;38.30;;;;;;;14.81;68.12;100664.13;5037365;28;20047;-85
2022/03/16 07:51:45;;;;;;;84.03;41.33;;;;;;;14.71;68.19;100674.66;5038054;28;20056;-85
2022/03/16 07:54:10;;;;;;;78.38;40.92;;;;;;;14.66;68.62;100675.00;5036736;28;20021;-85
2022/03/16 07:56:35;;;;;;;73.40;38.50;;;;;;;14.77;68.38;100674.16;5038451;28;20025;-84
2022/03/16 07:59:01;;;;;;;66.68;36.47;;;;;;;14.88;67.74;100674.09;5035491;28;20030;-85
2022/03/16 08:01:28;;;;;;;78.15;38.88;;;;;;;14.87;67.90;100680.34;5033741;28;20101;-85
2022/03/16 08:03:54;;;;;;;71.57;36.50;;;;;;;14.90;67.96;100684.53;5032558;28;20037;-85
2022/03/16 08:06:19;;;;;;;69.78;37.28;;;;;;;14.90;68.06;100687.19;5038142;28;20116;-85
2022/03/16 08:08:44;;;;;;;71.07;36.28;;;;;;;14.88;68.08;100691.75;5038312;28;20045;-86
2022/03/16 08:11:10;;;;;;;73.55;38.08;;;;;;;15.00;67.91;100687.28;5038087;28;20033;-86
2022/03/16 08:13:38;;;;;;;81.97;38.97;;;;;;;15.01;67.78;100687.16;5039670;28;20040;-86
2022/03/16 08:16:04;;;;;;;89.80;42.08;;;;;;;14.80;68.57;100683.63;5039944;28;20103;-85
2022/03/16 08:18:30;;;;;;;94.88;41.30;;;;;;;14.85;68.13;100689.38;5040340;28;20112;-86
2022/03/16 08:20:56;;;;;;;82.70;41.33;;;;;;;14.86;68.32;100672.53;5037473;28;20029;-86
2022/03/16 08:23:21;;;;;;;74.93;37.90;;;;;;;14.81;68.54;100665.00;5037783;28;20440;-86
2022/03/16 08:25:47;;;;;;;74.25;37.88;;;;;;;14.87;68.28;100671.59;5038004;28;20041;-86
2022/03/16 08:28:12;;;;;;;73.50;37.28;;;;;;;14.99;68.22;100683.81;5036242;28;20057;-85
2022/03/16 08:30:38;;;;;;;72.82;38.58;;;;;;;15.05;67.87;100682.47;5037953;28;20052;-86
2022/03/16 08:33:03;;;;;;;67.18;35.95;;;;;;;15.10;67.99;100680.25;5037428;28;20127;-85
2022/03/16 08:35:29;;;;;;;74.25;38.42;;;;;;;15.10;67.61;100690.84;5037280;28;20405;-84
2022/03/16 08:37:54;;;;;;;72.22;36.55;;;;;;;15.14;67.73;100688.78;5038070;28;20136;-85
2022/03/16 08:40:20;;;;;;;70.50;36.58;;;;;;;15.14;67.69;100691.44;5038206;28;20033;-86
2022/03/16 08:42:45;;;;;;;79.57;37.58;;;;;;;15.10;67.90;100690.00;5035761;28;20508;-86
2022/03/16 08:45:11;;;;;;;84.82;39.35;;;;;;;14.93;67.51;100697.53;5034510;28;20029;-85
2022/03/16 08:47:37;;;;;;;76.15;40.20;;;;;;;14.97;68.09;100701.59;5034488;28;20888;-86
2022/03/16 08:50:03;;;;;;;75.70;41.40;;;;;;;14.98;68.07;100700.63;5033854;28;20049;-86
2022/03/16 08:52:29;;;;;;;68.80;37.40;;;;;;;15.04;67.99;100697.47;5026450;28;20480;-86
2022/03/16 08:54:54;;;;;;;99.97;41.22;;;;;;;14.84;68.38;100695.63;5029411;28;20037;-86
2022/03/16 08:57:23;;;;;;;73.68;36.88;;;;;;;14.97;68.18;100695.44;5028312;28;20018;-86
2022/03/16 08:59:49;;;;;;;69.55;36.42;;;;;;;15.14;67.49;100707.28;5027699;28;20113;-86
2022/03/16 09:02:15;;;;;;;73.05;37.90;;;;;;;15.17;67.56;100702.59;5033578;28;20040;-86
2022/03/16 09:04:41;;;;;;;67.00;34.70;;;;;;;15.11;67.53;100704.91;5029174;28;20112;-85
2022/03/16 09:07:06;;;;;;;72.47;39.20;;;;;;;15.19;67.69;100700.66;5033518;28;20121;-85
2022/03/16 09:09:31;;;;;;;71.78;37.15;;;;;;;15.13;67.67;100695.88;5034026;28;20060;-86
2022/03/16 09:11:57;;;;;;;59.25;33.38;;;;;;;15.17;67.32;100699.13;5032157;28;20423;-86
2022/03/16 09:14:22;;;;;;;60.85;32.95;;;;;;;15.21;67.42;100692.63;5033029;28;20034;-85
2022/03/16 09:16:48;;;;;;;64.95;34.88;;;;;;;15.18;67.40;100693.69;5033763;28;20024;-86
2022/03/16 09:19:20;;;;;;;66.85;34.95;;;;;;;15.18;67.34;100698.97;5032940;28;20029;-86
2022/03/16 09:21:49;;;;;;;61.60;34.45;;;;;;;15.15;67.40;100687.84;5036700;28;20104;-85
2022/03/16 09:24:15;;;;;;;60.00;32.63;;;;;;;15.17;67.53;100692.03;5033277;28;20061;-85
2022/03/16 09:26:41;;;;;;;57.30;32.67;;;;;;;15.18;67.68;100685.75;5033852;28;20025;-86
2022/03/16 09:29:08;;;;;;;66.97;34.83;;;;;;;15.15;67.49;100687.84;5032565;28;20071;-86
2022/03/16 09:31:36;;;;;;;65.72;33.42;;;;;;;14.91;68.29;100678.31;5033163;28;20029;-86
2022/03/16 09:34:05;;;;;;;56.80;31.17;;;;;;;14.92;68.56;100687.91;5033146;28;20041;-86
2022/03/16 09:36:31;;;;;;;66.95;34.33;;;;;;;15.13;68.21;100684.47;5033488;28;20040;-86
2022/03/16 09:38:56;;;;;;;67.60;35.03;;;;;;;15.12;67.78;100688.91;5029399;28;20049;-86
2022/03/16 09:41:21;;;;;;;61.63;33.10;;;;;;;15.15;68.00;100685.19;5030740;28;20033;-86
2022/03/16 09:43:50;;;;;;;62.58;33.75;;;;;;;15.17;67.85;100681.44;5031150;28;20041;-86
2022/03/16 09:46:21;;;;;;;55.72;31.25;;;;;;;15.19;68.04;100678.69;5031900;28;20029;-86
2022/03/16 09:48:46;;;;;;;55.63;29.27;;;;;;;15.31;67.97;100682.09;5031479;28;20017;-85
2022/03/16 09:51:11;;;;;;;57.65;30.50;;;;;;;15.29;68.05;100682.22;5031753;28;20032;-86
2022/03/16 09:53:38;;;;;;;52.28;29.17;;;;;;;15.37;67.90;100692.19;5030882;28;20032;-86
2022/03/16 09:56:05;;;;;;;57.28;30.80;;;;;;;15.44;67.72;100685.38;5033107;28;20387;-86
2022/03/16 09:58:31;;;;;;;55.15;29.88;;;;;;;15.47;67.64;100682.50;5030358;28;20079;-86
2022/03/16 10:00:57;;;;;;;47.45;26.88;;;;;;;15.43;67.58;100687.19;5031142;28;20025;-86
2022/03/16 10:03:23;;;;;;;51.55;29.15;;;;;;;15.45;67.85;100679.97;5031131;28;20033;-85
2022/03/16 10:05:50;;;;;;;53.42;28.67;;;;;;;15.52;67.75;100674.16;5031543;28;20373;-86
2022/03/16 10:08:30;;;;;;;46.65;28.10;;;;;;;15.61;67.70;100682.16;5029398;28;20018;-85
2022/03/16 10:14:05;;;;;;;46.97;28.33;;;;;;;15.63;67.33;100676.75;5032206;28;20040;-86
2022/03/16 10:19:14;;;;;;;42.22;25.95;;;;;;;15.77;67.06;100679.06;5031934;28;20044;-85
2022/03/16 10:21:40;;;;;;;40.60;24.48;;;;;;;15.43;67.73;100668.66;5031222;28;20379;-85
2022/03/16 10:24:05;;;;;;;39.58;24.42;;;;;;;15.64;67.37;100675.78;5031495;28;20037;-85
2022/03/16 10:26:31;;;;;;;38.65;23.10;;;;;;;15.60;67.83;100666.41;5031565;28;20036;-85
2022/03/16 10:29:03;;;;;;;38.33;22.67;;;;;;;15.70;67.60;100656.72;5035043;28;20057;-85
2022/03/16 10:31:29;;;;;;;35.08;21.42;;;;;;;15.64;67.44;100649.31;5032198;28;20026;-85
2022/03/16 10:33:54;;;;;;;28.38;19.58;;;;;;;15.72;67.47;100649.50;5031964;28;20035;-85
2022/03/16 10:36:26;;;;;;;32.25;19.92;;;;;;;15.74;67.41;100646.72;5030773;28;20402;-85
2022/03/16 10:38:54;;;;;;;27.63;19.05;;;;;;;15.83;67.51;100636.19;5031508;28;20434;-85
2022/03/16 10:47:09;;;;;;;20.30;14.50;;;;;;;16.05;66.93;100634.31;5032902;28;20513;-85
2022/03/16 10:49:34;;;;;;;20.17;13.90;;;;;;;16.06;66.97;100630.72;5031183;28;20272;-85
2022/03/16 10:52:05;;;;;;;18.48;13.88;;;;;;;15.81;67.52;100632.81;5030694;28;20276;-85
2022/03/16 10:54:32;;;;;;;15.82;12.07;;;;;;;15.80;67.57;100628.50;5026971;28;20040;-85
2022/03/16 10:56:59;;;;;;;16.83;11.45;;;;;;;15.89;67.42;100628.69;5031958;28;20384;-85
2022/03/16 10:59:29;;;;;;;16.70;12.05;;;;;;;16.02;66.71;100624.00;5030374;28;20040;-86
2022/03/16 11:02:01;;;;;;;15.52;11.63;;;;;;;15.68;67.46;100626.91;5031151;28;20201;-85
2022/03/16 11:04:29;;;;;;;12.85;10.35;;;;;;;16.10;66.25;100618.03;5029559;28;20048;-85
2022/03/16 11:06:56;;;;;;;13.80;10.27;;;;;;;16.39;65.56;100623.38;5030854;28;20045;-85
2022/03/16 11:09:22;;;;;;;15.63;11.13;;;;;;;16.33;65.69;100635.41;5031285;28;20025;-85
2022/03/16 11:14:34;;;;;;;13.32;9.10;;;;;;;16.20;65.68;100617.06;5023455;28;20095;-84
2022/03/16 11:17:02;;;;;;;13.98;10.30;;;;;;;16.19;65.87;100615.41;5031898;28;20405;-84
2022/03/16 11:19:29;;;;;;;11.68;9.10;;;;;;;16.20;66.04;100617.06;5031305;28;20494;-85